Time;durP1;ratioP1;P1;durP2;ratioP2;P2;SDS_P1;SDS_P2;PMS_P1;PMS_P2;Temp;Humidity;BMP_temperature;BMP_pressure;BME280_temperature;BME280_humidity;BME280_pressure;Samples;Min_cycle;Max_cycle;Signal;HPM_P1;HPM_P2
2022/05/09 00:01:22;;;;;;;0.40;0.23;;;;;;;;;;5054749;28;20039;-81
2022/05/09 00:03:48;;;;;;;0.20;0.20;;;;;;;;;;5059738;28;20032;-81
2022/05/09 00:06:14;;;;;;;0.30;0.30;;;;;;;;;;5060612;28;20039;-79
2022/05/09 00:08:42;;;;;;;0.20;0.20;;;;;;;;;;5056333;28;20040;-80
2022/05/09 00:11:08;;;;;;;0.47;0.35;;;;;;;;;;5053451;28;20042;-80
2022/05/09 00:13:34;;;;;;;0.10;0.10;;;;;;;;;;5054263;28;20040;-80
2022/05/09 00:16:00;;;;;;;0.10;0.10;;;;;;;;;;5060633;28;20033;-80
2022/05/09 00:18:26;;;;;;;0.10;0.10;;;;;;;;;;5060157;28;20110;-80
2022/05/09 00:20:53;;;;;;;0.17;0.17;;;;;;;;;;5046626;28;20300;-80
2022/05/09 00:23:19;;;;;;;0.50;0.33;;;;;;;;;;5054807;28;20086;-80
2022/05/09 00:25:45;;;;;;;0.40;0.40;;;;;;;;;;5051185;28;20112;-80
2022/05/09 00:28:11;;;;;;;0.10;0.10;;;;;;;;;;5045325;28;20385;-80
2022/05/09 00:30:37;;;;;;;0.40;0.40;;;;;;;;;;5044789;28;20822;-80
2022/05/09 00:33:04;;;;;;;0.30;0.25;;;;;;;;;;5045480;28;20063;-80
2022/05/09 00:35:30;;;;;;;0.13;0.13;;;;;;;;;;5045224;28;20037;-80
2022/05/09 00:37:56;;;;;;;0.63;0.53;;;;;;;;;;5050873;28;20028;-79
2022/05/09 00:40:22;;;;;;;0.10;0.10;;;;;;;;;;5048246;28;20492;-80
2022/05/09 00:42:52;;;;;;;0.40;0.40;;;;;;;;;;5045774;28;20360;-80
2022/05/09 00:45:19;;;;;;;0.57;0.45;;;;;;;;;;5047733;28;20279;-82
2022/05/09 00:47:46;;;;;;;0.10;0.10;;;;;;;;;;5054248;28;20155;-84
2022/05/09 00:50:13;;;;;;;0.43;0.43;;;;;;;;;;5049674;28;20037;-83
2022/05/09 00:52:45;;;;;;;0.25;0.25;;;;;;;;;;5045840;28;20032;-81
2022/05/09 00:55:17;;;;;;;0.32;0.30;;;;;;;;;;5051761;28;20032;-79
2022/05/09 00:57:43;;;;;;;0.43;0.43;;;;;;;;;;5050442;28;20033;-80
2022/05/09 01:00:11;;;;;;;0.27;0.27;;;;;;;;;;5059643;28;20029;-79
2022/05/09 01:02:38;;;;;;;0.10;0.10;;;;;;;;;;5050345;28;20032;-79
2022/05/09 01:05:04;;;;;;;;;;;;;;;;;;5053107;28;20089;-79
2022/05/09 01:07:30;;;;;;;0.10;0.10;;;;;;;;;;5058787;28;20315;-80
2022/05/09 01:09:57;;;;;;;0.40;0.40;;;;;;;;;;5049549;28;20028;-79
2022/05/09 01:12:23;;;;;;;;;;;;;;;;;;5050236;28;20665;-79
2022/05/09 01:14:49;;;;;;;0.20;0.20;;;;;;;;;;5054366;28;19930;-79
2022/05/09 01:17:16;;;;;;;0.13;0.13;;;;;;;;;;5052212;28;20133;-79
2022/05/09 01:19:43;;;;;;;0.45;0.45;;;;;;;;;;5050240;28;20046;-78
2022/05/09 01:22:28;;;;;;;0.55;0.40;;;;;;;;;;5049796;28;20746;-78
2022/05/09 01:24:55;;;;;;;0.55;0.55;;;;;;;;;;5044419;28;20032;-77
2022/05/09 01:27:22;;;;;;;0.28;0.28;;;;;;;;;;5060149;28;20056;-78
2022/05/09 01:29:48;;;;;;;0.22;0.20;;;;;;;;;;5058281;28;20016;-78
2022/05/09 01:32:16;;;;;;;0.30;0.30;;;;;;;;;;5050598;28;20063;-78
2022/05/09 01:34:45;;;;;;;0.25;0.25;;;;;;;;;;5058919;28;20021;-78
2022/05/09 01:37:12;;;;;;;0.17;0.17;;;;;;;;;;5053224;28;20044;-78
2022/05/09 01:39:39;;;;;;;0.20;0.20;;;;;;;;;;5063475;28;21866;-78
2022/05/09 01:42:09;;;;;;;0.77;0.77;;;;;;;;;;5057459;28;20036;-78
2022/05/09 01:44:36;;;;;;;0.20;0.20;;;;;;;;;;5053314;28;20036;-79
2022/05/09 01:49:47;;;;;;;0.10;0.10;;;;;;;;;;5052737;28;20129;-83
2022/05/09 01:52:16;;;;;;;0.27;0.20;;;;;;;;;;5045166;28;20058;-82
2022/05/09 01:54:43;;;;;;;0.10;0.10;;;;;;;;;;5047705;28;20111;-81
2022/05/09 01:57:12;;;;;;;0.47;0.30;;;;;;;;;;5045950;28;22201;-81
2022/05/09 01:59:39;;;;;;;0.08;0.08;;;;;;;;;;5045454;28;20040;-82
2022/05/09 02:02:16;;;;;;;0.88;0.70;;;;;;;;;;5049392;28;20043;-82
2022/05/09 02:04:42;;;;;;;0.20;0.20;;;;;;;;;;5053887;28;20032;-80
2022/05/09 02:07:13;;;;;;;0.30;0.30;;;;;;;;;;5046439;28;20036;-80
2022/05/09 02:09:43;;;;;;;0.43;0.30;;;;;;;;;;5046673;28;20294;-80
2022/05/09 02:12:09;;;;;;;0.13;0.10;;;;;;;;;;5050178;28;20025;-80
2022/05/09 02:14:36;;;;;;;0.70;0.68;;;;;;;;;;5051440;28;20103;-81
2022/05/09 02:17:02;;;;;;;0.40;0.40;;;;;;;;;;5061772;28;20120;-83
2022/05/09 02:19:28;;;;;;;0.20;0.20;;;;;;;;;;5060227;28;20753;-83
2022/05/09 02:21:54;;;;;;;0.73;0.50;;;;;;;;;;5051426;28;20036;-82
2022/05/09 02:24:22;;;;;;;0.10;0.10;;;;;;;;;;5048790;28;20447;-82
2022/05/09 02:26:48;;;;;;;0.10;0.10;;;;;;;;;;5064323;28;20650;-83
2022/05/09 02:29:14;;;;;;;0.50;0.40;;;;;;;;;;5047372;28;20036;-83
2022/05/09 02:31:40;;;;;;;0.10;0.10;;;;;;;;;;5048567;28;20499;-83
2022/05/09 02:34:08;;;;;;;1.35;0.80;;;;;;;;;;5048256;28;20479;-84
2022/05/09 02:36:34;;;;;;;0.30;0.30;;;;;;;;;;5054183;28;20409;-83
2022/05/09 02:39:00;;;;;;;0.20;0.20;;;;;;;;;;5057155;28;20120;-83
2022/05/09 02:41:26;;;;;;;0.10;0.10;;;;;;;;;;5050074;28;20048;-83
2022/05/09 02:43:52;;;;;;;0.22;0.20;;;;;;;;;;5050361;28;20032;-83
2022/05/09 02:46:18;;;;;;;0.88;0.60;;;;;;;;;;5061295;28;20047;-83
2022/05/09 02:48:45;;;;;;;1.17;0.50;;;;;;;;;;5060761;28;20045;-82
2022/05/09 02:51:11;;;;;;;0.38;0.38;;;;;;;;;;5051848;28;20024;-82
2022/05/09 02:53:38;;;;;;;0.40;0.40;;;;;;;;;;5060618;28;20082;-81
2022/05/09 02:56:04;;;;;;;0.20;0.20;;;;;;;;;;5047319;28;20025;-82
2022/05/09 02:58:30;;;;;;;;;;;;;;;;;;5052827;28;20310;-81
2022/05/09 03:00:57;;;;;;;0.40;0.40;;;;;;;;;;5060782;28;19962;-81
2022/05/09 03:06:08;;;;;;;0.50;0.50;;;;;;;;;;5050797;28;20104;-80
2022/05/09 03:08:34;;;;;;;0.22;0.22;;;;;;;;;;5049990;28;20131;-80
2022/05/09 03:11:00;;;;;;;0.13;0.13;;;;;;;;;;5054619;28;20028;-81
2022/05/09 03:13:26;;;;;;;0.20;0.20;;;;;;;;;;5053935;28;20062;-81
2022/05/09 03:15:52;;;;;;;0.10;0.10;;;;;;;;;;5049156;28;20864;-83
2022/05/09 03:18:21;;;;;;;0.20;0.20;;;;;;;;;;5060364;28;20055;-81
2022/05/09 03:20:47;;;;;;;0.73;0.50;;;;;;;;;;5058341;28;20024;-81
2022/05/09 03:23:13;;;;;;;0.08;0.08;;;;;;;;;;5051423;28;20891;-85
2022/05/09 03:25:40;;;;;;;0.20;0.20;;;;;;;;;;5047167;28;20028;-81
2022/05/09 03:28:08;;;;;;;8.18;0.52;;;;;;;;;;5046966;28;20094;-80
2022/05/09 03:30:34;;;;;;;1.52;0.65;;;;;;;;;;5049199;28;20052;-79
2022/05/09 03:33:00;;;;;;;0.30;0.30;;;;;;;;;;5051534;28;20039;-81
2022/05/09 03:35:26;;;;;;;2.70;1.53;;;;;;;;;;5045402;28;20035;-82
2022/05/09 03:37:53;;;;;;;0.15;0.15;;;;;;;;;;5048683;28;20028;-81
2022/05/09 03:40:20;;;;;;;0.13;0.13;;;;;;;;;;5048341;28;20051;-83
2022/05/09 03:42:46;;;;;;;0.22;0.22;;;;;;;;;;5048912;28;20028;-81
2022/05/09 03:45:12;;;;;;;0.97;0.10;;;;;;;;;;5051178;28;20037;-81
2022/05/09 03:47:39;;;;;;;0.65;0.60;;;;;;;;;;5047454;28;20040;-81
2022/05/09 03:50:05;;;;;;;0.32;0.32;;;;;;;;;;5057674;28;20551;-81
2022/05/09 03:52:32;;;;;;;0.10;0.10;;;;;;;;;;5054933;28;20404;-82
2022/05/09 03:54:58;;;;;;;0.37;0.20;;;;;;;;;;5057079;28;20036;-82
2022/05/09 03:57:24;;;;;;;0.70;0.70;;;;;;;;;;5061918;28;20352;-82
2022/05/09 03:59:51;;;;;;;0.43;0.43;;;;;;;;;;5058920;28;20290;-81
2022/05/09 04:02:17;;;;;;;0.52;0.52;;;;;;;;;;5050475;28;20963;-81
2022/05/09 04:04:43;;;;;;;0.30;0.30;;;;;;;;;;5053861;28;20020;-80
2022/05/09 04:07:09;;;;;;;0.00;0.00;;;;;;;;;;5051769;28;20032;-80
2022/05/09 04:09:36;;;;;;;0.30;0.30;;;;;;;;;;5054575;28;20083;-80
2022/05/09 04:12:02;;;;;;;0.93;0.75;;;;;;;;;;5047422;28;20093;-80
2022/05/09 04:17:16;;;;;;;0.20;0.20;;;;;;;;;;5054682;28;20047;-79
2022/05/09 04:19:42;;;;;;;0.45;0.45;;;;;;;;;;5050665;28;20028;-81
2022/05/09 04:22:08;;;;;;;0.37;0.37;;;;;;;;;;5047828;28;20036;-80
2022/05/09 04:24:35;;;;;;;2.08;0.65;;;;;;;;;;5048862;28;20291;-81
2022/05/09 04:27:01;;;;;;;0.13;0.10;;;;;;;;;;5052063;28;20041;-80
2022/05/09 04:29:27;;;;;;;0.30;0.30;;;;;;;;;;5055856;28;20759;-80
2022/05/09 04:31:54;;;;;;;0.20;0.20;;;;;;;;;;5051473;28;20020;-79
2022/05/09 04:34:21;;;;;;;1.80;0.60;;;;;;;;;;5051667;28;20040;-79
2022/05/09 04:36:47;;;;;;;0.77;0.77;;;;;;;;;;5046727;28;21250;-79
2022/05/09 04:39:13;;;;;;;0.08;0.08;;;;;;;;;;5050944;28;20032;-80
2022/05/09 04:41:39;;;;;;;0.73;0.73;;;;;;;;;;5056553;28;20131;-79
2022/05/09 04:44:05;;;;;;;0.38;0.38;;;;;;;;;;5059084;28;20028;-81
2022/05/09 04:46:32;;;;;;;0.30;0.30;;;;;;;;;;5061440;28;20423;-82
2022/05/09 04:48:58;;;;;;;0.32;0.32;;;;;;;;;;5057248;28;20040;-82
2022/05/09 04:51:24;;;;;;;0.15;0.15;;;;;;;;;;5059608;28;20031;-81
2022/05/09 04:53:50;;;;;;;0.40;0.37;;;;;;;;;;5060892;28;20414;-79
2022/05/09 04:56:17;;;;;;;0.30;0.30;;;;;;;;;;5058737;28;20028;-80
2022/05/09 04:58:43;;;;;;;0.20;0.20;;;;;;;;;;5057218;28;20613;-79
2022/05/09 05:01:09;;;;;;;1.45;1.27;;;;;;;;;;5058335;28;20036;-81
2022/05/09 05:03:35;;;;;;;0.10;0.10;;;;;;;;;;5058390;28;20122;-81
2022/05/09 05:06:02;;;;;;;0.20;0.20;;;;;;;;;;5060463;28;20044;-79
2022/05/09 05:08:33;;;;;;;;;;;;;;;;;;5057420;28;20643;-82
2022/05/09 05:10:59;;;;;;;0.63;0.63;;;;;;;;;;5055794;28;19912;-85
2022/05/09 05:13:25;;;;;;;0.40;0.40;;;;;;;;;;5056309;28;20043;-84
2022/05/09 05:15:51;;;;;;;0.10;0.10;;;;;;;;;;5056295;28;20052;-83
2022/05/09 05:18:21;;;;;;;0.40;0.40;;;;;;;;;;5060120;28;20285;-83
2022/05/09 05:20:47;;;;;;;0.40;0.40;;;;;;;;;;5060300;28;20036;-83
2022/05/09 05:23:13;;;;;;;0.68;0.68;;;;;;;;;;5056281;28;20077;-83
2022/05/09 05:25:40;;;;;;;0.20;0.20;;;;;;;;;;5073428;28;20329;-84
2022/05/09 05:28:07;;;;;;;0.28;0.28;;;;;;;;;;5059898;28;20813;-91
2022/05/09 05:30:35;;;;;;;0.90;0.55;;;;;;;;;;5059168;28;20103;-83
2022/05/09 05:33:02;;;;;;;0.45;0.28;;;;;;;;;;5059516;28;20154;-86
2022/05/09 05:35:28;;;;;;;0.20;0.20;;;;;;;;;;5057554;28;20060;-75
2022/05/09 05:37:55;;;;;;;0.17;0.17;;;;;;;;;;5052828;28;20043;-77
2022/05/09 05:40:21;;;;;;;0.47;0.47;;;;;;;;;;5066166;28;20051;-77
2022/05/09 05:42:52;;;;;;;0.63;0.50;;;;;;;;;;5057827;28;20032;-77
2022/05/09 05:45:19;;;;;;;0.10;0.10;;;;;;;;;;5055688;28;20024;-77
2022/05/09 05:47:46;;;;;;;0.32;0.32;;;;;;;;;;5059868;28;20119;-77
2022/05/09 05:50:13;;;;;;;0.68;0.50;;;;;;;;;;5061623;28;20031;-76
2022/05/09 05:52:39;;;;;;;0.20;0.20;;;;;;;;;;5060933;28;20028;-77
2022/05/09 05:55:05;;;;;;;0.52;0.52;;;;;;;;;;5062169;28;20040;-80
2022/05/09 05:57:33;;;;;;;0.20;0.10;;;;;;;;;;5063006;28;20691;-80
2022/05/09 06:00:01;;;;;;;0.28;0.25;;;;;;;;;;5064941;28;20109;-79
2022/05/09 06:02:28;;;;;;;0.00;0.00;;;;;;;;;;5062241;28;20455;-79
2022/05/09 06:04:54;;;;;;;0.30;0.30;;;;;;;;;;5066269;28;20426;-79
2022/05/09 06:07:22;;;;;;;0.82;0.50;;;;;;;;;;5071901;28;20103;-79
2022/05/09 06:09:49;;;;;;;2.75;1.02;;;;;;;;;;5063818;28;20482;-79
2022/05/09 06:12:15;;;;;;;;;;;;;;;;;;5065659;28;20104;-77
2022/05/09 06:14:41;;;;;;;2.10;0.60;;;;;;;;;;5062621;28;20002;-79
2022/05/09 06:17:08;;;;;;;0.13;0.13;;;;;;;;;;5063791;28;20047;-81
2022/05/09 06:19:35;;;;;;;0.20;0.20;;;;;;;;;;5061463;28;20032;-79
2022/05/09 06:22:01;;;;;;;0.10;0.10;;;;;;;;;;5061504;28;20029;-82
2022/05/09 06:24:27;;;;;;;;;;;;;;;;;;5063671;28;20037;-81
2022/05/09 06:26:53;;;;;;;0.10;0.10;;;;;;;;;;5061402;28;19908;-82
2022/05/09 06:29:19;;;;;;;0.05;0.05;;;;;;;;;;5077193;28;20043;-81
2022/05/09 06:31:46;;;;;;;0.50;0.50;;;;;;;;;;5059945;28;20120;-80
2022/05/09 06:34:13;;;;;;;0.10;0.10;;;;;;;;;;5058817;28;20036;-81
2022/05/09 06:36:40;;;;;;;0.00;0.00;;;;;;;;;;5062387;28;20031;-80
2022/05/09 06:39:07;;;;;;;0.08;0.08;;;;;;;;;;5059636;28;20028;-79
2022/05/09 06:41:33;;;;;;;0.40;0.40;;;;;;;;;;5061252;28;20032;-80
2022/05/09 06:43:59;;;;;;;0.20;0.20;;;;;;;;;;5061070;28;20036;-79
2022/05/09 06:46:26;;;;;;;0.22;0.20;;;;;;;;;;5060788;28;20427;-80
2022/05/09 06:48:52;;;;;;;0.57;0.47;;;;;;;;;;5075370;28;20178;-80
2022/05/09 06:51:18;;;;;;;1.02;0.38;;;;;;;;;;5063953;28;20071;-80
2022/05/09 06:53:44;;;;;;;0.30;0.20;;;;;;;;;;5077432;28;20028;-79
2022/05/09 06:56:10;;;;;;;0.22;0.20;;;;;;;;;;5060550;28;20029;-80
2022/05/09 06:58:37;;;;;;;0.57;0.57;;;;;;;;;;5062310;28;20067;-80
2022/05/09 07:01:12;;;;;;;0.10;0.10;;;;;;;;;;5061144;28;20053;-79
2022/05/09 07:03:38;;;;;;;0.43;0.43;;;;;;;;;;5060533;28;20106;-79
2022/05/09 07:06:04;;;;;;;0.30;0.30;;;;;;;;;;5063506;28;20029;-79
2022/05/09 07:08:32;;;;;;;0.28;0.28;;;;;;;;;;5060484;28;20052;-79
2022/05/09 07:10:58;;;;;;;0.15;0.15;;;;;;;;;;5059364;28;20020;-79
2022/05/09 07:13:24;;;;;;;0.13;0.13;;;;;;;;;;5060687;28;20039;-79
2022/05/09 07:15:50;;;;;;;0.10;0.10;;;;;;;;;;5061033;28;20040;-79
2022/05/09 07:18:16;;;;;;;1.75;0.47;;;;;;;;;;5064461;28;21052;-80
2022/05/09 07:20:42;;;;;;;0.70;0.60;;;;;;;;;;5061609;28;20032;-79
2022/05/09 07:23:10;;;;;;;0.65;0.22;;;;;;;;;;5060983;28;20032;-79
2022/05/09 07:25:37;;;;;;;0.00;0.00;;;;;;;;;;5060841;28;20033;-80
2022/05/09 07:28:03;;;;;;;0.10;0.10;;;;;;;;;;5060809;28;20032;-79
2022/05/09 07:30:30;;;;;;;0.00;0.00;;;;;;;;;;5078706;28;20039;-79
2022/05/09 07:32:56;;;;;;;0.08;0.08;;;;;;;;;;5061261;28;20039;-79
2022/05/09 07:35:23;;;;;;;4.28;1.10;;;;;;;;;;5060737;28;20158;-78
2022/05/09 07:37:49;;;;;;;0.30;0.22;;;;;;;;;;5062719;28;20029;-77
2022/05/09 07:40:16;;;;;;;0.20;0.17;;;;;;;;;;5060498;28;20024;-77
2022/05/09 07:42:44;;;;;;;0.10;0.10;;;;;;;;;;5060695;28;20419;-78
2022/05/09 07:45:11;;;;;;;0.32;0.32;;;;;;;;;;5062052;28;20454;-77
2022/05/09 07:47:39;;;;;;;0.22;0.22;;;;;;;;;;5060874;28;20421;-78
2022/05/09 07:50:05;;;;;;;0.10;0.10;;;;;;;;;;5059986;28;20036;-77
2022/05/09 07:52:31;;;;;;;0.30;0.30;;;;;;;;;;5060238;28;20028;-78
2022/05/09 07:54:57;;;;;;;0.15;0.00;;;;;;;;;;5060630;28;20052;-78
2022/05/09 07:57:23;;;;;;;;;;;;;;;;;;5062851;28;20598;-77
2022/05/09 07:59:49;;;;;;;0.40;0.30;;;;;;;;;;5076480;28;19908;-77
2022/05/09 08:02:15;;;;;;;;;;;;;;;;;;5060643;28;20024;-78
2022/05/09 08:04:41;;;;;;;0.20;0.20;;;;;;;;;;5075372;28;19928;-78
2022/05/09 08:07:08;;;;;;;0.32;0.25;;;;;;;;;;5060952;28;20667;-78
2022/05/09 08:09:34;;;;;;;0.22;0.22;;;;;;;;;;5060389;28;20042;-78
2022/05/09 08:12:00;;;;;;;0.03;0.03;;;;;;;;;;5061962;28;20062;-78
2022/05/09 08:14:28;;;;;;;0.10;0.10;;;;;;;;;;5059667;28;20032;-78
2022/05/09 08:16:54;;;;;;;0.22;0.20;;;;;;;;;;5059526;28;20135;-78
2022/05/09 08:19:20;;;;;;;0.30;0.30;;;;;;;;;;5059853;28;20036;-78
2022/05/09 08:21:50;;;;;;;0.25;0.20;;;;;;;;;;5058119;28;20082;-78
2022/05/09 08:24:17;;;;;;;0.00;0.00;;;;;;;;;;5062812;28;20086;-78
2022/05/09 08:26:43;;;;;;;0.00;0.00;;;;;;;;;;5059838;28;20047;-78
2022/05/09 08:29:09;;;;;;;0.10;0.10;;;;;;;;;;5060954;28;20044;-78
2022/05/09 08:31:35;;;;;;;1.90;0.32;;;;;;;;;;5059287;28;20514;-78
2022/05/09 08:34:01;;;;;;;0.00;0.00;;;;;;;;;;5061947;28;20666;-78
2022/05/09 08:36:46;;;;;;;0.32;0.22;;;;;;;;;;5062224;28;20040;-79
2022/05/09 08:39:13;;;;;;;1.27;0.52;;;;;;;;;;5059087;28;20032;-80
2022/05/09 08:41:42;;;;;;;0.00;0.00;;;;;;;;;;5059786;28;20039;-80
2022/05/09 08:44:15;;;;;;;0.25;0.20;;;;;;;;;;5059640;28;20039;-79
2022/05/09 08:47:00;;;;;;;0.15;0.10;;;;;;;;;;5059022;28;20044;-80
2022/05/09 08:49:32;;;;;;;0.85;0.30;;;;;;;;;;5061478;28;20052;-80
2022/05/09 08:52:01;;;;;;;0.15;0.15;;;;;;;;;;5058974;28;20136;-80
2022/05/09 08:54:27;;;;;;;0.75;0.32;;;;;;;;;;5061425;28;20032;-80
2022/05/09 08:56:57;;;;;;;0.45;0.35;;;;;;;;;;5060857;28;20077;-80
2022/05/09 08:59:27;;;;;;;0.10;0.10;;;;;;;;;;5059572;28;20718;-80
2022/05/09 09:01:53;;;;;;;0.10;0.10;;;;;;;;;;5059393;28;20024;-80
2022/05/09 09:04:26;;;;;;;2.45;0.35;;;;;;;;;;5059218;28;20033;-80
2022/05/09 09:07:04;;;;;;;0.10;0.10;;;;;;;;;;5060079;28;20033;-80
2022/05/09 09:09:30;;;;;;;0.10;0.10;;;;;;;;;;5062320;28;20044;-80
2022/05/09 09:12:09;;;;;;;0.10;0.10;;;;;;;;;;5061361;28;20118;-80
2022/05/09 09:14:41;;;;;;;0.40;0.40;;;;;;;;;;5059603;28;20028;-80
2022/05/09 09:17:26;;;;;;;1.27;0.75;;;;;;;;;;5059532;28;20063;-80
2022/05/09 09:19:52;;;;;;;;;;;;;;;;;;5061077;28;20021;-80
2022/05/09 09:22:32;;;;;;;0.10;0.10;;;;;;;;;;5062328;28;20544;-80
2022/05/09 09:24:58;;;;;;;0.57;0.45;;;;;;;;;;5050907;28;20095;-79
2022/05/09 09:27:36;;;;;;;0.13;0.13;;;;;;;;;;5065481;28;20044;-80
2022/05/09 09:30:10;;;;;;;0.20;0.20;;;;;;;;;;5064847;28;20034;-79
2022/05/09 09:32:39;;;;;;;0.15;0.15;;;;;;;;;;5063277;28;20043;-80
2022/05/09 09:35:09;;;;;;;0.10;0.10;;;;;;;;;;5063114;28;20079;-79
2022/05/09 09:37:49;;;;;;;0.32;0.32;;;;;;;;;;5065050;28;20036;-79
2022/05/09 09:40:15;;;;;;;0.00;0.00;;;;;;;;;;5063682;28;20028;-79
2022/05/09 09:42:41;;;;;;;0.50;0.50;;;;;;;;;;5062871;28;20048;-80
2022/05/09 09:45:25;;;;;;;0.22;0.20;;;;;;;;;;5065747;28;20017;-79
2022/05/09 09:48:05;;;;;;;0.75;0.40;;;;;;;;;;5065864;28;20053;-79
2022/05/09 09:50:31;;;;;;;0.10;0.10;;;;;;;;;;5062383;28;20047;-80
2022/05/09 09:52:59;;;;;;;0.22;0.00;;;;;;;;;;5064959;28;20021;-80
2022/05/09 09:55:32;;;;;;;0.00;0.00;;;;;;;;;;5062586;28;20025;-79
2022/05/09 09:58:18;;;;;;;0.10;0.10;;;;;;;;;;5062329;28;20036;-79
2022/05/09 10:00:44;;;;;;;;;;;;;;;;;;5062154;28;20029;-79
2022/05/09 10:03:16;;;;;;;0.15;0.15;;;;;;;;;;5065217;28;19915;-79
2022/05/09 10:05:45;;;;;;;0.45;0.43;;;;;;;;;;5062160;28;20032;-79
2022/05/09 10:08:23;;;;;;;0.22;0.22;;;;;;;;;;5061692;28;20044;-80
2022/05/09 10:10:56;;;;;;;0.30;0.30;;;;;;;;;;5062437;28;20500;-79
2022/05/09 10:13:23;;;;;;;1.75;0.43;;;;;;;;;;5061853;28;20462;-80
2022/05/09 10:16:01;;;;;;;0.40;0.17;;;;;;;;;;5062396;28;20116;-80
2022/05/09 10:18:31;;;;;;;0.22;0.22;;;;;;;;;;5064348;28;20035;-79
2022/05/09 10:21:00;;;;;;;0.45;0.38;;;;;;;;;;5062552;28;20028;-79
2022/05/09 10:26:18;;;;;;;0.13;0.13;;;;;;;;;;5062753;28;20529;-79
2022/05/09 10:28:45;;;;;;;0.08;0.08;;;;;;;;;;5058039;28;20045;-79
2022/05/09 10:31:20;;;;;;;0.20;0.20;;;;;;;;;;5061503;28;20032;-79
2022/05/09 10:33:47;;;;;;;0.70;0.45;;;;;;;;;;5046057;28;20043;-79
2022/05/09 10:36:33;;;;;;;0.08;0.08;;;;;;;;;;5045913;28;20029;-79
2022/05/09 10:38:59;;;;;;;0.30;0.20;;;;;;;;;;5054239;28;20066;-80
2022/05/09 10:41:28;;;;;;;0.35;0.35;;;;;;;;;;5035787;28;20555;-80
2022/05/09 10:44:04;;;;;;;0.05;0.05;;;;;;;;;;5040127;28;20499;-80
2022/05/09 10:46:58;;;;;;;0.20;0.20;;;;;;;;;;5042718;28;20055;-80
2022/05/09 10:49:35;;;;;;;0.32;0.32;;;;;;;;;;5051517;28;20051;-80
2022/05/09 10:52:23;;;;;;;0.20;0.20;;;;;;;;;;5039451;28;20515;-80
2022/05/09 10:54:52;;;;;;;0.25;0.25;;;;;;;;;;5040539;28;20037;-80
2022/05/09 10:57:21;;;;;;;0.20;0.20;;;;;;;;;;5056706;28;20036;-80
2022/05/09 10:59:48;;;;;;;0.13;0.10;;;;;;;;;;5047189;28;20055;-80
2022/05/09 11:02:31;;;;;;;3.50;0.22;;;;;;;;;;5044109;28;20039;-80
2022/05/09 11:04:57;;;;;;;0.17;0.17;;;;;;;;;;5033406;28;20033;-80
2022/05/09 11:07:49;;;;;;;0.13;0.10;;;;;;;;;;5023070;28;20409;-80
2022/05/09 11:10:18;;;;;;;0.30;0.20;;;;;;;;;;5026219;28;20038;-80
2022/05/09 11:12:50;;;;;;;0.55;0.32;;;;;;;;;;5024570;28;20520;-80
2022/05/09 11:15:35;;;;;;;0.32;0.32;;;;;;;;;;5039507;28;20394;-80
2022/05/09 11:18:20;;;;;;;0.20;0.20;;;;;;;;;;5059068;28;20032;-80
2022/05/09 11:21:12;;;;;;;0.15;0.15;;;;;;;;;;5056056;28;20036;-80
2022/05/09 11:24:02;;;;;;;0.05;0.05;;;;;;;;;;5059320;28;20036;-80
2022/05/09 11:26:33;;;;;;;0.85;0.47;;;;;;;;;;5060400;28;20028;-80
2022/05/09 11:29:04;;;;;;;0.10;0.10;;;;;;;;;;5060839;28;20044;-80
2022/05/09 11:31:36;;;;;;;0.82;0.40;;;;;;;;;;5060509;28;20066;-80
2022/05/09 11:34:08;;;;;;;0.30;0.30;;;;;;;;;;5061887;28;20035;-80
2022/05/09 11:36:37;;;;;;;0.32;0.32;;;;;;;;;;5062436;28;20035;-77
2022/05/09 11:39:11;;;;;;;0.65;0.47;;;;;;;;;;5060818;28;20039;-77
2022/05/09 11:41:57;;;;;;;0.63;0.40;;;;;;;;;;5057923;28;20059;-77
2022/05/09 11:44:29;;;;;;;0.45;0.25;;;;;;;;;;5059936;28;20021;-77
2022/05/09 11:47:01;;;;;;;6.50;0.93;;;;;;;;;;5055494;28;20045;-78
2022/05/09 11:49:46;;;;;;;0.85;0.38;;;;;;;;;;5049737;28;20044;-77
2022/05/09 11:52:29;;;;;;;0.68;0.68;;;;;;;;;;5060584;28;20024;-77
2022/05/09 11:55:05;;;;;;;0.40;0.40;;;;;;;;;;5044921;28;20029;-77
2022/05/09 11:57:33;;;;;;;0.10;0.10;;;;;;;;;;5062284;28;20550;-77
2022/05/09 12:00:00;;;;;;;0.25;0.10;;;;;;;;;;5060510;28;20036;-77
2022/05/09 12:02:45;;;;;;;0.20;0.15;;;;;;;;;;5059130;28;20028;-77
2022/05/09 12:05:26;;;;;;;0.00;0.00;;;;;;;;;;5059570;28;20024;-77
2022/05/09 12:08:11;;;;;;;0.28;0.25;;;;;;;;;;5059867;28;20044;-77
2022/05/09 12:10:38;;;;;;;0.32;0.30;;;;;;;;;;5059960;28;20033;-77
2022/05/09 12:13:14;;;;;;;1.33;0.50;;;;;;;;;;5059728;28;20028;-77
2022/05/09 12:15:40;;;;;;;1.92;1.33;;;;;;;;;;5060648;28;20087;-77
2022/05/09 12:18:25;;;;;;;0.60;0.15;;;;;;;;;;5062365;28;20045;-77
2022/05/09 12:20:54;;;;;;;0.00;0.00;;;;;;;;;;5060114;28;20656;-77
2022/05/09 12:23:39;;;;;;;0.10;0.10;;;;;;;;;;5061187;28;20035;-77
2022/05/09 12:26:06;;;;;;;0.73;0.27;;;;;;;;;;5059880;28;20032;-77
2022/05/09 12:28:33;;;;;;;0.20;0.20;;;;;;;;;;5061114;28;20068;-77
2022/05/09 12:31:07;;;;;;;0.55;0.43;;;;;;;;;;5060059;28;20029;-77
2022/05/09 12:33:45;;;;;;;0.10;0.10;;;;;;;;;;5061937;28;20077;-77
2022/05/09 12:36:13;;;;;;;0.10;0.10;;;;;;;;;;5061381;28;20043;-77
2022/05/09 12:38:41;;;;;;;0.85;0.40;;;;;;;;;;5074659;28;20033;-77
2022/05/09 12:41:18;;;;;;;0.28;0.17;;;;;;;;;;5056743;28;20039;-78
2022/05/09 12:43:49;;;;;;;0.00;0.00;;;;;;;;;;5060338;28;20131;-77
2022/05/09 12:46:51;;;;;;;0.10;0.00;;;;;;;;;;5061425;28;20546;-77
2022/05/09 12:49:19;;;;;;;0.15;0.15;;;;;;;;;;5016590;28;20128;-78
2022/05/09 12:51:47;;;;;;;0.22;0.22;;;;;;;;;;5016152;28;20120;-78
2022/05/09 12:54:15;;;;;;;0.00;0.00;;;;;;;;;;5019386;28;20033;-77
2022/05/09 12:56:49;;;;;;;0.00;0.00;;;;;;;;;;5016653;28;20045;-78
2022/05/09 12:59:16;;;;;;;0.20;0.10;;;;;;;;;;5015922;28;20689;-77
2022/05/09 13:01:44;;;;;;;0.20;0.20;;;;;;;;;;5017711;28;20051;-77
2022/05/09 13:04:29;;;;;;;1.05;0.30;;;;;;;;;;5016221;28;20030;-77
2022/05/09 13:06:57;;;;;;;0.03;0.03;;;;;;;;;;5017823;28;20041;-77
2022/05/09 13:09:24;;;;;;;0.00;0.00;;;;;;;;;;5018828;28;20071;-78
2022/05/09 13:11:54;;;;;;;0.20;0.20;;;;;;;;;;5018486;28;20130;-77
2022/05/09 13:14:23;;;;;;;0.20;0.20;;;;;;;;;;5016523;28;20043;-77
2022/05/09 13:16:56;;;;;;;2.25;0.60;;;;;;;;;;5020300;28;20037;-76
2022/05/09 13:19:22;;;;;;;0.13;0.13;;;;;;;;;;5016230;28;20029;-77
2022/05/09 13:21:49;;;;;;;0.20;0.10;;;;;;;;;;5015856;28;20029;-75
2022/05/09 13:24:30;;;;;;;1.25;0.65;;;;;;;;;;5057516;28;20032;-77
2022/05/09 13:26:58;;;;;;;0.25;0.25;;;;;;;;;;5064688;28;20115;-77
2022/05/09 13:29:24;;;;;;;0.00;0.00;;;;;;;;;;5062998;28;20028;-76
2022/05/09 13:31:51;;;;;;;0.08;0.08;;;;;;;;;;5058788;28;20028;-77
2022/05/09 13:34:39;;;;;;;0.20;0.20;;;;;;;;;;5058737;28;20093;-77
2022/05/09 13:37:08;;;;;;;0.80;0.20;;;;;;;;;;5046944;28;20067;-77
2022/05/09 13:39:39;;;;;;;1.92;0.20;;;;;;;;;;5060346;28;20032;-77
2022/05/09 13:42:17;;;;;;;0.20;0.20;;;;;;;;;;5060652;28;20111;-77
2022/05/09 13:44:45;;;;;;;0.17;0.17;;;;;;;;;;5058908;28;20901;-76
2022/05/09 13:47:12;;;;;;;0.13;0.13;;;;;;;;;;5056710;28;20040;-76
2022/05/09 13:49:40;;;;;;;;;;;;;;;;;;5058390;28;20119;-76
2022/05/09 13:52:11;;;;;;;0.10;0.10;;;;;;;;;;5060968;28;19912;-77
2022/05/09 13:54:43;;;;;;;0.17;0.17;;;;;;;;;;5063990;28;20119;-77
2022/05/09 13:57:17;;;;;;;0.20;0.20;;;;;;;;;;5059102;28;20032;-76
2022/05/09 13:59:45;;;;;;;0.08;0.05;;;;;;;;;;5059507;28;20153;-77
2022/05/09 14:02:13;;;;;;;0.22;0.13;;;;;;;;;;5057746;28;20025;-77
2022/05/09 14:04:40;;;;;;;0.10;0.10;;;;;;;;;;5049530;28;20040;-77
2022/05/09 14:09:51;;;;;;;0.65;0.43;;;;;;;;;;5049048;28;20051;-77
2022/05/09 14:12:21;;;;;;;0.30;0.30;;;;;;;;;;5077727;28;20078;-78
2022/05/09 14:14:49;;;;;;;0.38;0.20;;;;;;;;;;5062971;28;20041;-77
2022/05/09 14:17:22;;;;;;;0.00;0.00;;;;;;;;;;5061006;28;20154;-77
2022/05/09 14:19:51;;;;;;;0.10;0.10;;;;;;;;;;5061937;28;20032;-77
2022/05/09 14:22:19;;;;;;;0.20;0.20;;;;;;;;;;5060473;28;20029;-77
2022/05/09 14:30:20;;;;;;;0.10;0.10;;;;;;;;;;5061331;28;20090;-77
2022/05/09 14:32:50;;;;;;;0.00;0.00;;;;;;;;;;5062409;28;20032;-77
2022/05/09 14:35:35;;;;;;;0.15;0.10;;;;;;;;;;5063371;28;20036;-78
2022/05/09 14:38:01;;;;;;;0.10;0.10;;;;;;;;;;5063965;28;20032;-77
2022/05/09 14:40:29;;;;;;;0.00;0.00;;;;;;;;;;5063449;28;20072;-78
2022/05/09 14:43:04;;;;;;;0.10;0.10;;;;;;;;;;5061566;28;20036;-78
2022/05/09 14:45:33;;;;;;;0.00;0.00;;;;;;;;;;5063893;28;20143;-78
2022/05/09 14:48:09;;;;;;;0.38;0.38;;;;;;;;;;5062897;28;20036;-78
2022/05/09 14:50:36;;;;;;;0.00;0.00;;;;;;;;;;5061306;28;20031;-78
2022/05/09 14:53:18;;;;;;;0.00;0.00;;;;;;;;;;5061202;28;20394;-78
2022/05/09 14:58:44;;;;;;;0.05;0.05;;;;;;;;;;5061625;28;20527;-78
2022/05/09 15:01:10;;;;;;;0.10;0.10;;;;;;;;;;5061327;28;20086;-78
2022/05/09 15:03:36;;;;;;;0.98;0.30;;;;;;;;;;5063046;28;20036;-78
2022/05/09 15:06:06;;;;;;;0.08;0.08;;;;;;;;;;5063083;28;20071;-78
2022/05/09 15:08:32;;;;;;;3.40;1.08;;;;;;;;;;5060614;28;20045;-78
2022/05/09 15:10:59;;;;;;;0.20;0.20;;;;;;;;;;5062860;28;20029;-78
2022/05/09 15:13:25;;;;;;;0.52;0.20;;;;;;;;;;5060439;28;20499;-78
2022/05/09 15:15:53;;;;;;;0.10;0.10;;;;;;;;;;5060898;28;20054;-78
2022/05/09 15:18:23;;;;;;;0.22;0.20;;;;;;;;;;5063582;28;20587;-78
2022/05/09 15:20:50;;;;;;;0.10;0.10;;;;;;;;;;5061753;28;20563;-78